^^
Meteo Knjazevac Station Historical Data
Daily Summary for May 4, 2022 Units:  English    Metric   Both
Daily Weekly Monthly Yearly Custom
  High: Low: Average:
Temperature: 59 °F 36.6 °F 49.3 °F
Dew Point: 51.6 °F 35.5 °F 45.5 °F
Humidity: 98% 75% 87%
Wind Speed: 7.3mph 0mph 2.3mph
Wind Gust: 9mph - -
Wind- - South
Pressure: 30.10 in 29.92 in -
Precipitation: 0.00 in    
Historical Graphs
 
 
Tabular Data for May 4, 2022
Time Temperature Dew Point Pressure Wind Wind Speed Wind Gust Humidity Rainfall Rate (Hourly) solar Conditions
00:04 45.7 °F 42.7 °F 30.10 in North 0.5 mph 2 mph 89.4% 0.00 in 0 W/m2
00:09 45.6 °F 42.7 °F 30.10 in North 0.9 mph 2 mph 89.6% 0.00 in 0 W/m2
00:14 45.4 °F 42.6 °F 30.09 in North 0.3 mph 2 mph 90% 0.00 in 0 W/m2
00:19 45.3 °F 42.6 °F 30.09 in North 1.1 mph 1.1 mph 90% 0.00 in 0 W/m2
00:24 45 °F 42.3 °F 30.09 in NNW 2.1 mph 2 mph 90% 0.00 in 0 W/m2
00:29 45 °F 42.2 °F 30.09 in NNW 2.3 mph 3 mph 90% 0.00 in 0 W/m2
00:34 44.8 °F 42 °F 30.09 in NNE 1.9 mph 2 mph 90% 0.00 in 0 W/m2
00:39 44.8 °F 42.1 °F 30.09 in North 1 mph 2 mph 90.4% 0.00 in 0 W/m2
00:44 44.8 °F 42.1 °F 30.09 in NW 1 mph 1.1 mph 90.3% 0.00 in 0 W/m2
00:49 44.6 °F 41.8 °F 30.09 in WSW 0.1 mph 2 mph 90% 0.00 in 0 W/m2
00:54 44.4 °F 41.7 °F 30.09 in West 0.8 mph 1 mph 90% 0.00 in 0 W/m2
00:59 44.2 °F 41.5 °F 30.09 in Calm   1 mph 90% 0.00 in 0 W/m2
01:04 44.2 °F 41.7 °F 30.08 in Calm     90.9% 0.00 in 0 W/m2
01:09 44.1 °F 41.6 °F 30.08 in North 0.5 mph 0.2 mph 91% 0.00 in 0 W/m2
01:14 43.9 °F 41.5 °F 30.08 in NNW 1.4 mph 1.3 mph 91.4% 0.00 in 0 W/m2
01:19 43.7 °F 41.2 °F 30.08 in NNW 1 mph 2 mph 91% 0.00 in 0 W/m2
01:24 43.5 °F 41.1 °F 30.08 in NNW 0.2 mph 2 mph 91% 0.00 in 0 W/m2
01:29 43.3 °F 40.9 °F 30.08 in North 0.3 mph   91% 0.00 in 0 W/m2
01:34 43.2 °F 40.7 °F 30.08 in NW 0.7 mph 1 mph 91% 0.00 in 0 W/m2
01:39 43.1 °F 40.6 °F 30.08 in West 0.7 mph 2 mph 91% 0.00 in 0 W/m2
01:44 42.8 °F 40.5 °F 30.08 in WSW 1 mph 1 mph 91.4% 0.00 in 0 W/m2
01:49 42.7 °F 40.8 °F 30.08 in West 1.1 mph 1 mph 93% 0.00 in 0 W/m2
01:54 42.5 °F 40.6 °F 30.08 in West 1.1 mph 1.6 mph 93% 0.00 in 0 W/m2
01:59 42.4 °F 40.5 °F 30.08 in West 1.5 mph 2 mph 93% 0.00 in 0 W/m2
02:04 42.3 °F 40.6 °F 30.08 in NW 2.9 mph 2.5 mph 93.5% 0.00 in 0 W/m2
02:09 42.3 °F 40.8 °F 30.08 in NNW 0.9 mph 3 mph 94.5% 0.00 in 0 W/m2
02:14 42.3 °F 40.9 °F 30.08 in North 0.1 mph 1 mph 95% 0.00 in 0 W/m2
02:19 42.2 °F 40.9 °F 30.08 in North 1.8 mph 1 mph 95% 0.00 in 0 W/m2
02:24 42.1 °F 40.6 °F 30.08 in NW 1.6 mph 2 mph 94.4% 0.00 in 0 W/m2
02:29 41.9 °F 40.1 °F 30.08 in NW 2 mph 2 mph 93.3% 0.00 in 0 W/m2
02:34 41.7 °F 40.2 °F 30.08 in NNW 2.2 mph 2 mph 94.2% 0.00 in 0 W/m2
02:39 41.7 °F 40.4 °F 30.08 in NNW 0.4 mph 2 mph 95% 0.00 in 0 W/m2
02:44 41.6 °F 40.3 °F 30.07 in WSW 1.8 mph 1.3 mph 94.8% 0.00 in 0 W/m2
02:49 41.4 °F 39.8 °F 30.07 in West 1.8 mph 2 mph 94% 0.00 in 0 W/m2
02:54 41.3 °F 39.7 °F 30.07 in NW 1.4 mph 2 mph 94% 0.00 in 0 W/m2
02:59 41.2 °F 39.9 °F 30.07 in NNW 1.4 mph 2 mph 94.9% 0.00 in 0 W/m2
03:04 41.2 °F 39.9 °F 30.07 in North 0.4 mph 2 mph 95% 0.00 in 0 W/m2
03:09 41 °F 39.7 °F 30.07 in NNW 0.7 mph 1 mph 95% 0.00 in 0 W/m2
03:14 40.9 °F 39.5 °F 30.07 in NNW 0.4 mph 2 mph 94.6% 0.00 in 0 W/m2
03:19 40.8 °F 39.2 °F 30.07 in WNW 0.4 mph 1 mph 94% 0.00 in 0 W/m2
03:24 40.6 °F 39 °F 30.07 in Calm   1 mph 94% 0.00 in 0 W/m2
03:29 40.4 °F 38.8 °F 30.06 in West 0.3 mph 0.7 mph 94% 0.00 in 0 W/m2
03:34 40.2 °F 38.6 °F 30.06 in WNW 1.7 mph 2 mph 94% 0.00 in 0 W/m2
03:39 40.1 °F 38.5 °F 30.07 in North 1.2 mph 2 mph 94% 0.00 in 0 W/m2
03:44 40 °F 38.4 °F 30.07 in North 0.4 mph 1 mph 94% 0.00 in 0 W/m2
03:49 39.8 °F 38.2 °F 30.07 in West 1.1 mph 1 mph 94% 0.00 in 0 W/m2
03:54 39.6 °F 38.1 °F 30.07 in West 1.6 mph 1.1 mph 94% 0.00 in 0 W/m2
03:59 39.5 °F 37.9 °F 30.07 in NW 1.2 mph 2 mph 94% 0.00 in 0 W/m2
04:04 39.4 °F 37.8 °F 30.07 in NW 2.6 mph 2.7 mph 94.2% 0.00 in 0 W/m2
04:09 39.2 °F 37.9 °F 30.07 in WNW 2.6 mph 4 mph 95% 0.00 in 0 W/m2
04:14 39.2 °F 37.9 °F 30.07 in WNW 1.5 mph 3 mph 95% 0.00 in 0 W/m2
04:19 39.2 °F 38.2 °F 30.07 in NW 0.4 mph 2 mph 95.9% 0.00 in 0 W/m2
04:24 39.2 °F 38.2 °F 30.07 in North 0.3 mph 1 mph 96% 0.00 in 0 W/m2
04:29 39.1 °F 38.1 °F 30.07 in North 1.6 mph 2 mph 96% 0.00 in 0 W/m2
04:34 39 °F 37.8 °F 30.07 in NNW 0.9 mph 3 mph 95.5% 0.00 in 0 W/m2
04:39 38.8 °F 37.5 °F 30.07 in NNW 0.8 mph 1 mph 95% 0.00 in 0 W/m2
04:44 38.7 °F 37.4 °F 30.07 in NNW 0.3 mph 2 mph 95% 0.00 in 0 W/m2
04:49 38.7 °F 37.6 °F 30.07 in Calm     95.9% 0.00 in 0 W/m2
04:54 38.7 °F 37.6 °F 30.07 in NNW 0.6 mph 0.2 mph 96% 0.00 in 0 W/m2
04:59 38.5 °F 37.5 °F 30.07 in NW 1.3 mph 1 mph 96% 0.00 in 0 W/m2
05:04 38.5 °F 37.4 °F 30.07 in Calm   2 mph 96% 0.00 in 0 W/m2
05:09 38.5 °F 37.3 °F 30.07 in WNW 0.1 mph   95.5% 0.00 in 0 W/m2
05:14 38.3 °F 37 °F 30.06 in WNW 1.2 mph 1.1 mph 95% 0.00 in 0 W/m2
05:19 38.1 °F 36.8 °F 30.07 in WNW 0.4 mph 2 mph 95% 0.00 in 0 W/m2
05:24 38 °F 36.7 °F 30.07 in WNW 0.7 mph 1 mph 95% 0.00 in 0 W/m2
05:29 37.8 °F 36.5 °F 30.07 in Calm   1 mph 95% 0.00 in 0 W/m2
05:34 37.8 °F 36.7 °F 30.07 in NNW 1 mph 1.8 mph 95.9% 0.00 in 0 W/m2
05:39 37.8 °F 36.9 °F 30.07 in NNW 1.1 mph 2 mph 96.9% 0.00 in 0 W/m2
05:44 37.7 °F 36.6 °F 30.07 in NW 1.6 mph 1.1 mph 95.8% 0.00 in 0 W/m2
05:49 37.5 °F 36.2 °F 30.07 in West 0.5 mph 2 mph 95% 0.00 in 0 W/m2
05:54 37.4 °F 36.1 °F 30.07 in WNW 0.2 mph 1 mph 95% 0.00 in 0 W/m2
05:59 37.2 °F 35.9 °F 30.07 in NNW 1.1 mph 0.7 mph 95% 0.00 in 0 W/m2
06:04 37.1 °F 35.8 °F 30.07 in NW 1.6 mph 2 mph 95% 0.00 in 2 W/m2
06:09 37 °F 35.7 °F 30.07 in WNW 1.3 mph 2 mph 95% 0.00 in 3 W/m2
06:14 36.9 °F 35.6 °F 30.07 in NW 2 mph 2 mph 95% 0.00 in 7 W/m2
06:19 36.9 °F 35.8 °F 30.06 in WNW 0.6 mph 2 mph 95.9% 0.00 in 10 W/m2
06:24 36.9 °F 35.8 °F 30.07 in WNW 2.4 mph 2 mph 96% 0.00 in 14 W/m2
06:29 36.7 °F 35.5 °F 30.07 in West 2.1 mph 3 mph 95.4% 0.00 in 18 W/m2
06:34 36.7 °F 35.6 °F 30.07 in NW 1.9 mph 2 mph 95.9% 0.00 in 23 W/m2
06:39 36.7 °F 35.6 °F 30.07 in NNW 1.4 mph 2 mph 96% 0.00 in 28 W/m2
06:44 36.6 °F 35.6 °F 30.07 in NNW 1 mph 2 mph 96% 0.00 in 36 W/m2
06:49 36.6 °F 35.5 °F 30.07 in NW 2 mph 2 mph 95.8% 0.00 in 42 W/m2
06:54 36.7 °F 35.6 °F 30.07 in NW 2.2 mph 2 mph 96% 0.00 in 51 W/m2
06:59 36.8 °F 35.7 °F 30.07 in NW 1.8 mph 2 mph 96% 0.00 in 53 W/m2
07:04 36.9 °F 35.8 °F 30.07 in NW 1.8 mph 2 mph 96% 0.00 in 70 W/m2
07:09 37 °F 35.9 °F 30.07 in West 2.3 mph 3 mph 96% 0.00 in 79 W/m2
07:14 37.1 °F 36.4 °F 30.07 in West 2.2 mph 2.2 mph 97.2% 0.00 in 86 W/m2
07:19 37.3 °F 36.8 °F 30.07 in WNW 2.2 mph 3 mph 98% 0.00 in 95 W/m2
07:24 37.5 °F 37 °F 30.07 in WNW 2 mph 2 mph 98% 0.00 in 108 W/m2
07:29 37.9 °F 37.3 °F 30.07 in WNW 2.3 mph 3 mph 98% 0.00 in 113 W/m2
07:34 38.5 °F 38 °F 30.07 in WNW 2.2 mph 3 mph 98% 0.00 in 133 W/m2
07:39 39.3 °F 38.7 °F 30.07 in WNW 2.4 mph 2 mph 97.6% 0.00 in 140 W/m2
07:44 40 °F 39 °F 30.07 in WNW 2 mph 3 mph 96% 0.00 in 159 W/m2
07:49 40.6 °F 39.6 °F 30.07 in WNW 1.8 mph 2 mph 96% 0.00 in 173 W/m2
07:54 41.4 °F 40.1 °F 30.07 in West 1.8 mph 2 mph 95.1% 0.00 in 181 W/m2
07:59 42.2 °F 40.7 °F 30.07 in West 2.2 mph 3 mph 94.4% 0.00 in 205 W/m2
08:04 42.8 °F 41.2 °F 30.07 in WSW 2.1 mph 2 mph 94% 0.00 in 215 W/m2
08:09 43.5 °F 41.8 °F 30.07 in WSW 1.3 mph 2 mph 93.5% 0.00 in 242 W/m2
08:14 44.1 °F 42.2 °F 30.07 in WSW 1.5 mph 2 mph 93% 0.00 in 259 W/m2
08:19 44.7 °F 42.8 °F 30.06 in WSW 2.2 mph 2 mph 93% 0.00 in 269 W/m2
08:24 45 °F 43.1 °F 30.06 in SW 1.9 mph 2 mph 93% 0.00 in 267 W/m2
08:29 45.6 °F 43.7 °F 30.06 in WSW 2.6 mph 2.2 mph 93% 0.00 in 295 W/m2
08:34 46.4 °F 44 °F 30.06 in WSW 2.4 mph 3 mph 91.5% 0.00 in 322 W/m2
08:39 46.9 °F 44.6 °F 30.06 in WSW 2 mph 2 mph 91.6% 0.00 in 317 W/m2
08:44 47.3 °F 44.8 °F 30.06 in SW 1.9 mph 2 mph 91% 0.00 in 397 W/m2
08:49 48.2 °F 45.7 °F 30.06 in SW 2.4 mph 2 mph 91% 0.00 in 402 W/m2
08:54 48.7 °F 46.2 °F 30.06 in WSW 2.1 mph 3 mph 91% 0.00 in 330 W/m2
08:59 49.1 °F 46.5 °F 30.06 in WSW 2.2 mph 2 mph 90.5% 0.00 in 371 W/m2
09:04 49.5 °F 46.6 °F 30.06 in West 2.2 mph 2 mph 90% 0.00 in 410 W/m2
09:09 49.5 °F 46.6 °F 30.05 in WNW 2.3 mph 3 mph 90% 0.00 in 382 W/m2
09:14 49.7 °F 46.7 °F 30.05 in WNW 2 mph 3 mph 89.4% 0.00 in 319 W/m2
09:19 49.8 °F 46.7 °F 30.05 in NW 1.2 mph 2 mph 89% 0.00 in 174 W/m2
09:24 49.7 °F 46.6 °F 30.05 in NNW 2.6 mph 2 mph 89% 0.00 in 174 W/m2
09:29 49.5 °F 46.4 °F 30.05 in North 2.1 mph 3 mph 89% 0.00 in 267 W/m2
09:34 49.3 °F 46.4 °F 30.05 in NNE 3.2 mph 3 mph 89.7% 0.00 in 412 W/m2
09:39 50.1 °F 47.2 °F 30.05 in NNE 2.4 mph 4 mph 89.7% 0.00 in 430 W/m2
09:44 51.2 °F 48 °F 30.04 in NNE 3.8 mph 3.6 mph 88.6% 0.00 in 480 W/m2
09:49 52 °F 48 °F 30.04 in NNE 4.3 mph 6 mph 86.2% 0.00 in 483 W/m2
09:54 52.3 °F 48.3 °F 30.04 in NNE 3.4 mph 5 mph 86% 0.00 in 459 W/m2
09:59 53 °F 48.7 °F 30.04 in North 3.1 mph 4 mph 85.4% 0.00 in 446 W/m2
10:04 53.4 °F 48.7 °F 30.04 in North 4.1 mph 4 mph 84.1% 0.00 in 399 W/m2
10:09 53.9 °F 49.2 °F 30.04 in NNE 4.5 mph 6 mph 84% 0.00 in 381 W/m2
10:14 54.2 °F 49.3 °F 30.04 in NNE 5.2 mph 6 mph 83.2% 0.00 in 374 W/m2
10:19 54.1 °F 49.2 °F 30.04 in NNE 3.7 mph 7 mph 83.2% 0.00 in 326 W/m2
10:24 54.8 °F 49.8 °F 30.03 in NNE 5.5 mph 5 mph 83.1% 0.00 in 330 W/m2
10:29 55.7 °F 50 °F 30.03 in NNE 4.1 mph 7 mph 81.2% 0.00 in 439 W/m2
10:34 56.2 °F 50.2 °F 30.03 in NNE 6.4 mph 6 mph 80.1% 0.00 in 418 W/m2
10:39 56.5 °F 50.3 °F 30.02 in NNE 5.3 mph 9 mph 79.7% 0.00 in 468 W/m2
10:44 56.7 °F 50.3 °F 30.02 in NNE 5.7 mph 7 mph 79% 0.00 in 465 W/m2
10:49 56.4 °F 50 °F 30.02 in North 2.8 mph 7 mph 79% 0.00 in 424 W/m2
10:54 56.6 °F 50.2 °F 30.01 in North 2.8 mph 4 mph 79.4% 0.00 in 459 W/m2
10:59 56.8 °F 50.4 °F 30.01 in North 5.3 mph 4 mph 79% 0.00 in 512 W/m2
11:04 57.1 °F 50.5 °F 30.01 in North 4.5 mph 6 mph 78.6% 0.00 in 649 W/m2
11:09 57.7 °F 50.9 °F 30.01 in North 4.9 mph 6 mph 78% 0.00 in 531 W/m2
11:14 58.3 °F 51 °F 30.01 in NNE 4.5 mph 6 mph 76.5% 0.00 in 520 W/m2
11:19 58.5 °F 50.6 °F 30.00 in NNE 5.2 mph 6 mph 75% 0.00 in 345 W/m2
11:24 58.4 °F 50.5 °F 30.00 in NNE 5.7 mph 6 mph 75% 0.00 in 319 W/m2
11:29 58 °F 50.1 °F 29.99 in NE 5.1 mph 7 mph 75% 0.00 in 227 W/m2
11:34 57.9 °F 50 °F 29.99 in NE 4.8 mph 7 mph 75% 0.00 in 220 W/m2
11:39 57.8 °F 49.9 °F 29.99 in NNE 4.2 mph 6 mph 75% 0.00 in 219 W/m2
11:44 57.7 °F 49.9 °F 29.99 in NNE 3.8 mph 6 mph 75% 0.00 in 219 W/m2
11:49 57.6 °F 49.8 °F 29.99 in NNE 3.4 mph 5 mph 75.2% 0.00 in 211 W/m2
11:54 57.6 °F 50.3 °F 29.98 in NNE 2.7 mph 4 mph 76.8% 0.00 in 194 W/m2
11:59 57.6 °F 50.4 °F 29.98 in NNE 3.5 mph 4 mph 77% 0.00 in 183 W/m2
12:04 57.7 °F 50.6 °F 29.98 in NNE 4.2 mph 5 mph 77% 0.00 in 176 W/m2
12:09 57.7 °F 50 °F 29.98 in NNE 4.7 mph 5 mph 75.4% 0.00 in 158 W/m2
12:14 57.7 °F 50.5 °F 29.98 in NNE 4.5 mph 6 mph 76.8% 0.00 in 137 W/m2
12:19 57.7 °F 50.5 °F 29.98 in NNE 5.2 mph 5 mph 76.8% 0.00 in 124 W/m2
12:24 57.7 °F 50.1 °F 29.98 in NNE 4.7 mph 6 mph 75.4% 0.00 in 127 W/m2
12:29 57.7 °F 50.5 °F 29.98 in NNE 5.5 mph 6 mph 76.6% 0.00 in 127 W/m2
12:34 57.6 °F 50.4 °F 29.98 in NNE 6.7 mph 7 mph 77% 0.00 in 120 W/m2
12:39 57.6 °F 50.3 °F 29.97 in NNE 6.3 mph 8 mph 77% 0.00 in 109 W/m2
12:44 57.4 °F 50.2 °F 29.97 in NNE 5.4 mph 7 mph 77% 0.00 in 112 W/m2
12:49 57.4 °F 50.2 °F 29.97 in North 4.2 mph 6 mph 77% 0.00 in 119 W/m2
12:54 57.5 °F 50.4 °F 29.97 in North 4.9 mph 5 mph 77.2% 0.00 in 146 W/m2
12:59 57.6 °F 50.6 °F 29.97 in North 4.3 mph 6 mph 77.4% 0.00 in 210 W/m2
13:04 57.8 °F 50.7 °F 29.97 in North 4.2 mph 5 mph 77% 0.00 in 298 W/m2
13:09 58.3 °F 51.1 °F 29.97 in North 4.4 mph 5 mph 77% 0.00 in 276 W/m2
13:14 58.6 °F 51.4 °F 29.96 in NNE 4.9 mph 5 mph 77% 0.00 in 219 W/m2
13:19 58.6 °F 51.4 °F 29.96 in NNE 5.8 mph 6 mph 77% 0.00 in 182 W/m2
13:24 58.6 °F 51.4 °F 29.96 in NNE 5.7 mph 7 mph 77% 0.00 in 164 W/m2
13:29 58.6 °F 51.4 °F 29.96 in NNE 3.8 mph 7 mph 77% 0.00 in 146 W/m2
13:34 58.6 °F 51.4 °F 29.96 in North 5.8 mph 5 mph 77% 0.00 in 134 W/m2
13:39 58.6 °F 51.4 °F 29.96 in North 5.8 mph 7 mph 77% 0.00 in 145 W/m2
13:44 58.5 °F 51.3 °F 29.96 in North 6.3 mph 7 mph 77% 0.00 in 147 W/m2
13:49 58.5 °F 51.3 °F 29.96 in NNE 7.3 mph 7 mph 77% 0.00 in 146 W/m2
13:54 58.4 °F 51.2 °F 29.96 in NNE 6.1 mph 8 mph 77% 0.00 in 213 W/m2
13:59 58.5 °F 51.3 °F 29.96 in NNE 5.1 mph 7 mph 77% 0.00 in 213 W/m2
14:04 58.5 °F 51.3 °F 29.96 in NNE 5.7 mph 6 mph 77% 0.00 in 161 W/m2
14:09 58.5 °F 51.3 °F 29.95 in NNE 6.1 mph 7 mph 77% 0.00 in 276 W/m2
14:14 58.7 °F 51.5 °F 29.95 in NNE 4.9 mph 6 mph 77% 0.00 in 257 W/m2
14:19 58.8 °F 51.1 °F 29.95 in NNE 4.6 mph 6 mph 75.5% 0.00 in 147 W/m2
14:24 58.8 °F 50.9 °F 29.95 in North 4 mph 5 mph 75% 0.00 in 131 W/m2
14:29 58.6 °F 51.1 °F 29.95 in North 4.2 mph 5 mph 76.1% 0.00 in 240 W/m2
14:34 58.8 °F 51.6 °F 29.95 in North 5.2 mph 6 mph 77% 0.00 in 247 W/m2
14:39 58.8 °F 50.9 °F 29.95 in NNE 5 mph 6 mph 75.1% 0.00 in 186 W/m2
14:44 58.9 °F 51 °F 29.95 in NNE 4.5 mph 6 mph 75% 0.00 in 221 W/m2
14:49 59 °F 51.1 °F 29.94 in NNE 5.4 mph 6 mph 75% 0.00 in 170 W/m2
14:54 59 °F 51.1 °F 29.94 in NNE 4.7 mph 6 mph 75% 0.00 in 175 W/m2
14:59 59 °F 51.1 °F 29.94 in North 4.3 mph 6 mph 75% 0.00 in 169 W/m2
15:04 59 °F 51.1 °F 29.94 in North 4.4 mph 5 mph 75% 0.00 in 146 W/m2
15:09 59 °F 51.1 °F 29.94 in NNE 3.8 mph 5 mph 75% 0.00 in 116 W/m2
15:14 59 °F 51.1 °F 29.94 in NNE 3.4 mph 4 mph 75% 0.00 in 84 W/m2
15:19 58.9 °F 51 °F 29.94 in North 3.9 mph 4 mph 75% 0.00 in 76 W/m2
15:24 58.6 °F 50.9 °F 29.94 in North 4.3 mph 5 mph 75.5% 0.00 in 69 W/m2
15:29 58.4 °F 51.2 °F 29.94 in North 3.4 mph 5 mph 77% 0.00 in 58 W/m2
15:34 58.2 °F 51 °F 29.94 in North 4 mph 4 mph 77% 0.00 in 45 W/m2
15:39 57.9 °F 50.8 °F 29.94 in North 3.3 mph 5 mph 77% 0.00 in 34 W/m2
15:44 57.7 °F 50.6 °F 29.94 in North 3.3 mph 4 mph 77.2% 0.00 in 25 W/m2
15:49 57.4 °F 50.6 °F 29.93 in North 3.6 mph 4 mph 78% 0.00 in 20 W/m2
15:54 57.2 °F 50.4 °F 29.93 in North 3.5 mph 4 mph 78% 0.00 in 17 W/m2
15:59 56.9 °F 50.1 °F 29.93 in North 4.1 mph 4 mph 78% 0.00 in 14 W/m2
16:04 56.8 °F 50.3 °F 29.93 in NNE 4.1 mph 5 mph 78.8% 0.00 in 10 W/m2
16:09 56.6 °F 50.1 °F 29.93 in North 4.3 mph 5 mph 79% 0.00 in 5 W/m2
16:14 56.3 °F 49.9 °F 29.93 in North 4.7 mph 5 mph 79% 0.00 in 4 W/m2
16:19 56.2 °F 49.8 °F 29.93 in North 3.8 mph 6 mph 79% 0.00 in 3 W/m2
16:24 56 °F 49.9 °F 29.94 in North 3.4 mph 5 mph 79.7% 0.00 in 1 W/m2
16:29 55.9 °F 49.9 °F 29.94 in North 3 mph 5 mph 80% 0.00 in 0 W/m2
16:34 55.8 °F 49.7 °F 29.94 in North 3.2 mph 3 mph 80% 0.00 in 0 W/m2
16:39 55.7 °F 49.6 °F 29.94 in North 3.1 mph 3 mph 80% 0.00 in 0 W/m2
16:44 55.6 °F 49.5 °F 29.94 in North 2.9 mph 3 mph 80% 0.00 in 0 W/m2
16:49 55.5 °F 49.6 °F 29.94 in North 2.2 mph 3 mph 80.6% 0.00 in 0 W/m2
16:54 55.4 °F 49.7 °F 29.94 in North 2.1 mph 2 mph 81% 0.00 in 0 W/m2
16:59 55.2 °F 49.5 °F 29.94 in NE 2.2 mph 2.2 mph 81% 0.00 in 0 W/m2
17:04 55.1 °F 49.3 °F 29.94 in NE 1.6 mph 3 mph 81% 0.00 in 0 W/m2
17:09 55 °F 49.3 °F 29.94 in NNE 1.1 mph 1 mph 81% 0.00 in 0 W/m2
17:14 54.9 °F 49.6 °F 29.94 in WSW 1 mph 1 mph 82.3% 0.00 in 0 W/m2
17:19 54.8 °F 49.6 °F 29.94 in South 0.1 mph 2 mph 82.6% 0.00 in 0 W/m2
17:24 54.6 °F 49.5 °F 29.94 in South 1.3 mph 1 mph 83% 0.00 in 0 W/m2
17:29 54.3 °F 49.3 °F 29.94 in SE 1.9 mph 2 mph 83% 0.00 in 0 W/m2
17:34 54.3 °F 49.3 °F 29.94 in SE 0.3 mph 2 mph 83% 0.00 in 0 W/m2
17:39 54.1 °F 49.2 °F 29.94 in SE 1.5 mph 1.1 mph 83.3% 0.00 in 0 W/m2
17:44 54.1 °F 49.3 °F 29.94 in South 2.1 mph 2 mph 84% 0.00 in 0 W/m2
17:49 54 °F 49.2 °F 29.94 in SSW 2.4 mph 2.2 mph 84% 0.00 in 0 W/m2
17:54 53.8 °F 49.1 °F 29.94 in SSW 2.6 mph 3 mph 84% 0.00 in 0 W/m2
17:59 53.6 °F 48.9 °F 29.94 in South 2 mph 3 mph 84% 0.00 in 0 W/m2
18:04 53.6 °F 48.9 °F 29.94 in NNE 1.8 mph 3 mph 84% 0.00 in 0 W/m2
18:09 53.5 °F 48.8 °F 29.94 in NNW 1.4 mph 2 mph 84% 0.00 in 0 W/m2
18:14 53.3 °F 48.9 °F 29.94 in WSW 0.8 mph 2 mph 84.8% 0.00 in 0 W/m2
18:19 53.2 °F 48.8 °F 29.94 in West 1.3 mph 2 mph 85% 0.00 in 0 W/m2
18:24 53.1 °F 48.7 °F 29.94 in NW 1.3 mph 2 mph 85% 0.00 in 0 W/m2
18:29 53.1 °F 48.7 °F 29.94 in North 0.9 mph 3 mph 85% 0.00 in 0 W/m2
18:34 53 °F 48.6 °F 29.94 in North 1 mph 2 mph 85% 0.00 in 0 W/m2
18:39 52.9 °F 48.5 °F 29.94 in North 0.9 mph 2 mph 85% 0.00 in 0 W/m2
18:44 52.9 °F 48.5 °F 29.94 in Calm   1 mph 85% 0.00 in 0 W/m2
18:49 52.9 °F 48.7 °F 29.94 in WSW 1.5 mph 1.8 mph 85.7% 0.00 in 0 W/m2
18:54 52.7 °F 48.6 °F 29.94 in NW 2.1 mph 2 mph 86% 0.00 in 0 W/m2
18:59 52.5 °F 48.5 °F 29.94 in NW 2.2 mph 2 mph 86% 0.00 in 0 W/m2
19:04 52.4 °F 48.4 °F 29.94 in West 0.4 mph 2 mph 86% 0.00 in 0 W/m2
19:09 52.2 °F 48.2 °F 29.94 in West 2.2 mph 2 mph 86% 0.00 in 0 W/m2
19:14 52.2 °F 48.1 °F 29.94 in WNW 1.8 mph 3 mph 86% 0.00 in 0 W/m2
19:19 52.2 °F 48.1 °F 29.94 in WNW 0.6 mph 2 mph 86% 0.00 in 0 W/m2
19:24 52.1 °F 48.1 °F 29.94 in WNW 0.4 mph 2 mph 86.4% 0.00 in 0 W/m2
19:29 52 °F 47.9 °F 29.94 in Calm   1 mph 86% 0.00 in 0 W/m2
19:34 51.8 °F 48 °F 29.94 in North 0.6 mph 0.2 mph 86.9% 0.00 in 0 W/m2
19:39 51.7 °F 48 °F 29.94 in North 1.5 mph 3 mph 87% 0.00 in 0 W/m2
19:44 51.6 °F 47.6 °F 29.94 in North 0.7 mph 3 mph 86.1% 0.00 in 0 W/m2
19:49 51.4 °F 47.7 °F 29.95 in Calm   1 mph 86.9% 0.00 in 0 W/m2
19:54 51.4 °F 47.9 °F 29.95 in West 0.7 mph 1 mph 88% 0.00 in 0 W/m2
19:59 51.3 °F 47.9 °F 29.94 in NNW 1 mph 1.8 mph 88.2% 0.00 in 0 W/m2
20:04 51.3 °F 48.1 °F 29.94 in NNE 3.2 mph 2.9 mph 89% 0.00 in 0 W/m2
20:09 51.4 °F 48.3 °F 29.94 in ENE 2.9 mph 5 mph 89% 0.00 in 0 W/m2
20:14 51.4 °F 48.3 °F 29.94 in NE 2.7 mph 3 mph 89.1% 0.00 in 0 W/m2
20:19 51.4 °F 48.6 °F 29.94 in NW 2.9 mph 3 mph 89.9% 0.00 in 0 W/m2
20:24 51.3 °F 48.4 °F 29.94 in NW 2.1 mph 3 mph 90% 0.00 in 0 W/m2
20:29 51.3 °F 48.3 °F 29.94 in NNW 1.6 mph 2 mph 89.7% 0.00 in 0 W/m2
20:34 51.3 °F 48.2 °F 29.94 in North 1.2 mph 2 mph 89.2% 0.00 in 0 W/m2
20:39 51.2 °F 48.3 °F 29.94 in North 1 mph 2 mph 90% 0.00 in 0 W/m2
20:44 51.1 °F 48.2 °F 29.94 in Calm   1 mph 90% 0.00 in 0 W/m2
20:49 51.1 °F 48.2 °F 29.94 in North 0.4 mph 0.2 mph 90% 0.00 in 0 W/m2
20:54 51.1 °F 48.2 °F 29.94 in North 1.5 mph 1.3 mph 90% 0.00 in 0 W/m2
20:59 50.9 °F 48.1 °F 29.94 in NW 2.3 mph 2.2 mph 90% 0.00 in 0 W/m2
21:04 50.9 °F 48.1 °F 29.94 in WNW 2.6 mph 3 mph 90% 0.00 in 0 W/m2
21:09 50.8 °F 48 °F 29.94 in NW 1.2 mph 3 mph 90% 0.00 in 0 W/m2
21:14 50.7 °F 48 °F 29.94 in NNW 1 mph 2 mph 90.2% 0.00 in 0 W/m2
21:19 50.7 °F 48.2 °F 29.94 in NNE 1.8 mph 2 mph 91% 0.00 in 0 W/m2
21:24 50.7 °F 48.2 °F 29.94 in Calm   2 mph 90.8% 0.00 in 0 W/m2
21:29 50.7 °F 47.9 °F 29.94 in Calm     90% 0.00 in 0 W/m2
21:34 50.6 °F 47.8 °F 29.94 in Calm     90% 0.00 in 0 W/m2
21:39 50.5 °F 48 °F 29.94 in North 0.5 mph 0.7 mph 90.8% 0.00 in 0 W/m2
21:44 50.5 °F 48 °F 29.94 in North 1.2 mph 2 mph 91% 0.00 in 0 W/m2
21:49 50.5 °F 48 °F 29.94 in NNE 1.5 mph 2 mph 91% 0.00 in 0 W/m2
21:54 50.5 °F 47.9 °F 29.94 in North 1.6 mph 2 mph 91% 0.00 in 0 W/m2
21:59 50.4 °F 47.8 °F 29.94 in WNW 0.2 mph 2 mph 91% 0.00 in 0 W/m2
22:04 50.3 °F 47.8 °F 29.94 in Calm     91% 0.00 in 0 W/m2
22:09 50.2 °F 47.7 °F 29.94 in SW 1.2 mph 1.8 mph 91% 0.00 in 0 W/m2
22:14 50.2 °F 47.7 °F 29.94 in WNW 2.3 mph 3 mph 91% 0.00 in 0 W/m2
22:19 50.2 °F 47.7 °F 29.94 in North 1.5 mph 3 mph 91% 0.00 in 0 W/m2
22:24 50 °F 47.5 °F 29.93 in NW 1.6 mph 2 mph 91% 0.00 in 0 W/m2
22:29 50 °F 47.5 °F 29.93 in WNW 2.1 mph 2 mph 91% 0.00 in 0 W/m2
22:34 49.8 °F 47.3 °F 29.93 in NW 0.9 mph 2 mph 91% 0.00 in 0 W/m2
22:39 49.7 °F 47.2 °F 29.93 in NNW 1.6 mph 2 mph 91% 0.00 in 0 W/m2
22:44 49.6 °F 47.5 °F 29.93 in North 0.1 mph 2 mph 92.3% 0.00 in 0 W/m2
22:49 49.6 °F 47.7 °F 29.93 in North 1.8 mph 1 mph 93% 0.00 in 0 W/m2
22:54 49.5 °F 47.6 °F 29.93 in NNW 1.6 mph 2 mph 93% 0.00 in 0 W/m2
22:59 49.4 °F 47.4 °F 29.93 in NNW 2 mph 2 mph 93% 0.00 in 0 W/m2
23:04 49.3 °F 47.3 °F 29.93 in North 2.6 mph 2 mph 93% 0.00 in 0 W/m2
23:09 49.3 °F 47.5 °F 29.93 in NNE 3.6 mph 3.6 mph 93.8% 0.00 in 0 W/m2
23:14 49.4 °F 47.7 °F 29.93 in NE 3.5 mph 5 mph 94% 0.00 in 0 W/m2
23:19 49.5 °F 47.8 °F 29.93 in NE 3.1 mph 3 mph 94% 0.00 in 0 W/m2
23:24 49.5 °F 47.8 °F 29.93 in NE 2.8 mph 3 mph 94% 0.00 in 0 W/m2
23:29 49.5 °F 47.8 °F 29.92 in NNE 3 mph 3 mph 94% 0.00 in 0 W/m2
23:34 49.5 °F 47.8 °F 29.93 in NNE 0.1 mph 3 mph 94% 0.00 in 0 W/m2
23:39 49.4 °F 47.7 °F 29.93 in North 0.3 mph   94% 0.00 in 0 W/m2
23:44 49.3 °F 47.7 °F 29.93 in NNW 1.2 mph 1 mph 94% 0.00 in 0 W/m2
23:49 49.2 °F 47.5 °F 29.93 in NW 0.9 mph 2 mph 94% 0.00 in 0 W/m2
23:54 49.1 °F 47.4 °F 29.93 in NW 1.6 mph 2 mph 94% 0.00 in 0 W/m2
23:59 49 °F 47.4 °F 29.93 in North 0.6 mph 2 mph 94% 0.00 in 0 W/m2
Knjazevac, Serbia
Compliments of Weather Underground - 4 mb